Erastus, North Carolina
Current Conditions -  °F | °C
As of 10:54 AM on Friday 24 Oct 2014 (Local Time) from KAVL Reporting Station
Clear Clear  
Wind Chill: 50°   Ceiling: Unl
Heat Index: 50°   Visibility: 10mi
Dew Point: 40°   Wind: 8mph
Humidity: 68%   Direction: 350°N
Pressure: 30.11"   Gusts: NA
Location:  35.2608°N, 83.1173°W
Report Text: KAVL 241454Z 35007KT 10SM CLR 10/04 A3011 RMK AO2 SLP190 T01000044 50003
Loading
Personal Weather Stations






























Interactive Weather Map
Tropical Storm Tracking
New forecast layout! Learn more

10-Day Weather Forecast

Advertisements
Track Severe Weather on mobile